Time;durP1;ratioP1;P1;durP2;ratioP2;P2;SDS_P1;SDS_P2;PMS_P1;PMS_P2;Temp;Humidity;BMP_temperature;BMP_pressure;BME280_temperature;BME280_humidity;BME280_pressure;Samples;Min_cycle;Max_cycle;Signal;HPM_P1;HPM_P2
2022/03/30 00:02:04;;;;;;;12.00;5.97;;;4.40;99.90;;;;;;5073062;28;20453;-76
2022/03/30 00:04:34;;;;;;;8.33;4.47;;;4.40;99.90;;;;;;5086265;28;20857;-77
2022/03/30 00:07:02;;;;;;;8.70;4.27;;;4.40;99.90;;;;;;5092801;28;20476;-77
2022/03/30 00:09:32;;;;;;;12.40;4.60;;;4.40;99.90;;;;;;5087806;28;20481;-77
2022/03/30 00:12:02;;;;;;;7.33;5.07;;;4.40;99.90;;;;;;5083848;28;20550;-76
2022/03/30 00:14:30;;;;;;;12.17;7.50;;;4.40;99.90;;;;;;5092581;28;20819;-77
2022/03/30 00:16:58;;;;;;;10.70;5.10;;;4.40;99.90;;;;;;5092333;28;20988;-77
2022/03/30 00:19:26;;;;;;;9.63;4.50;;;4.50;99.90;;;;;;5092404;28;20818;-77
2022/03/30 00:21:54;;;;;;;11.30;5.13;;;4.50;99.90;;;;;;5082765;28;20502;-77
2022/03/30 00:24:23;;;;;;;6.87;4.73;;;4.50;99.90;;;;;;5089435;28;20460;-78
2022/03/30 00:26:51;;;;;;;9.33;5.00;;;4.50;99.90;;;;;;5074652;28;20530;-77
2022/03/30 00:29:20;;;;;;;9.57;5.50;;;4.50;99.90;;;;;;5073361;28;20464;-77
2022/03/30 00:31:49;;;;;;;9.67;5.00;;;4.50;99.90;;;;;;5072155;28;20437;-77
2022/03/30 00:34:17;;;;;;;7.03;4.80;;;4.50;99.90;;;;;;5073210;28;20926;-76
2022/03/30 00:36:45;;;;;;;7.53;5.37;;;4.50;99.90;;;;;;5086357;28;20474;-77
2022/03/30 00:39:13;;;;;;;7.80;5.53;;;4.50;99.90;;;;;;5079964;28;20457;-77
2022/03/30 00:41:41;;;;;;;8.83;5.20;;;4.50;99.90;;;;;;5059479;28;20955;-77
2022/03/30 00:44:11;;;;;;;8.73;5.23;;;4.50;99.90;;;;;;5092377;28;20531;-77
2022/03/30 00:46:46;;;;;;;9.40;5.60;;;4.50;99.90;;;;;;5092457;28;20528;-76
2022/03/30 00:49:14;;;;;;;9.27;5.40;;;4.50;99.90;;;;;;5096343;28;20460;-77
2022/03/30 00:51:43;;;;;;;8.67;5.07;;;4.50;99.90;;;;;;5078864;28;20535;-77
2022/03/30 00:54:11;;;;;;;11.97;6.80;;;4.50;99.90;;;;;;5081817;28;20459;-76
2022/03/30 00:56:43;;;;;;;10.80;6.20;;;4.50;99.90;;;;;;5097618;28;20456;-77
2022/03/30 00:59:11;;;;;;;8.50;5.77;;;4.50;99.90;;;;;;5097972;28;20927;-77
2022/03/30 01:01:39;;;;;;;8.50;5.50;;;4.50;99.90;;;;;;5097454;28;20433;-77
2022/03/30 01:04:09;;;;;;;8.57;6.00;;;4.50;99.90;;;;;;5096223;28;20490;-77
2022/03/30 01:06:37;;;;;;;7.80;5.00;;;4.50;99.90;;;;;;5094921;28;20468;-77
2022/03/30 01:09:05;;;;;;;7.97;5.80;;;4.50;99.90;;;;;;5089126;28;20465;-77
2022/03/30 01:11:34;;;;;;;8.37;5.57;;;4.50;99.90;;;;;;5076974;28;20440;-77
2022/03/30 01:14:03;;;;;;;10.57;5.10;;;4.50;99.90;;;;;;5076836;28;20441;-77
2022/03/30 01:16:32;;;;;;;10.30;5.50;;;4.50;99.90;;;;;;5079516;28;20478;-77
2022/03/30 01:19:05;;;;;;;9.50;5.00;;;4.50;99.90;;;;;;5075384;28;20448;-76
2022/03/30 01:21:36;;;;;;;11.00;5.97;;;4.50;99.90;;;;;;5096213;28;20456;-77
2022/03/30 01:24:04;;;;;;;8.17;4.40;;;4.40;99.90;;;;;;5096010;28;20458;-77
2022/03/30 01:26:33;;;;;;;7.83;4.90;;;4.50;99.90;;;;;;5097131;28;20544;-77
2022/03/30 01:32:24;;;;;;;10.97;5.50;;;4.50;99.90;;;;;;5097005;28;20514;-77
2022/03/30 01:34:36;;;;;;;12.93;5.47;;;4.50;99.90;;;;;;5067757;28;20496;-77
2022/03/30 01:37:07;;;;;;;9.07;4.90;;;4.50;99.90;;;;;;5096771;28;20448;-77
2022/03/30 01:39:35;;;;;;;7.83;5.23;;;4.50;99.90;;;;;;5070464;28;20446;-77
2022/03/30 01:42:04;;;;;;;8.30;5.00;;;4.50;99.90;;;;;;5069308;28;20933;-77
2022/03/30 01:44:32;;;;;;;9.93;5.10;;;4.50;99.90;;;;;;5095318;28;20806;-77
2022/03/30 01:47:01;;;;;;;10.10;5.50;;;4.50;99.90;;;;;;5096428;28;20456;-77
2022/03/30 01:49:29;;;;;;;8.53;4.80;;;4.50;99.90;;;;;;5095146;28;20517;-77
2022/03/30 01:51:59;;;;;;;8.60;6.20;;;4.60;99.90;;;;;;5094125;28;20532;-76
2022/03/30 01:54:29;;;;;;;9.10;5.27;;;4.50;99.90;;;;;;5081175;28;20979;-77
2022/03/30 01:56:57;;;;;;;8.83;5.50;;;4.60;99.90;;;;;;5054725;28;20473;-77
2022/03/30 01:59:26;;;;;;;8.93;5.10;;;4.60;99.90;;;;;;5054365;28;20450;-77
2022/03/30 02:01:54;;;;;;;9.20;6.13;;;4.60;99.90;;;;;;5055939;28;21015;-77
2022/03/30 02:04:24;;;;;;;10.93;5.60;;;4.60;99.90;;;;;;5054776;28;20461;-77
2022/03/30 02:06:52;;;;;;;11.20;6.80;;;4.60;99.90;;;;;;5073998;28;20501;-77
2022/03/30 02:09:20;;;;;;;11.53;5.73;;;4.60;99.90;;;;;;5074970;28;20457;-77
2022/03/30 02:11:51;;;;;;;9.83;6.13;;;4.60;99.90;;;;;;5074635;28;20441;-77
2022/03/30 02:14:19;;;;;;;9.60;5.43;;;4.60;99.90;;;;;;5074700;28;20453;-77
2022/03/30 02:16:47;;;;;;;8.60;5.70;;;4.60;99.90;;;;;;5074386;28;20475;-77
2022/03/30 02:19:15;;;;;;;10.77;5.97;;;4.60;99.90;;;;;;5076204;28;20465;-77
2022/03/30 02:21:44;;;;;;;9.50;5.43;;;4.60;99.90;;;;;;5078800;28;20443;-77
2022/03/30 02:24:12;;;;;;;12.93;6.63;;;4.60;99.90;;;;;;5083102;28;20521;-77
2022/03/30 02:26:40;;;;;;;9.13;5.17;;;4.60;99.90;;;;;;5095661;28;20460;-77
2022/03/30 02:29:10;;;;;;;11.87;6.00;;;4.60;99.90;;;;;;5094365;28;21004;-77
2022/03/30 02:31:38;;;;;;;9.80;5.17;;;4.60;99.90;;;;;;5094366;28;20655;-77
2022/03/30 02:34:07;;;;;;;11.93;5.30;;;4.60;99.90;;;;;;5094449;28;20965;-77
2022/03/30 02:36:35;;;;;;;8.40;4.93;;;4.60;99.90;;;;;;5086446;28;20465;-78
2022/03/30 02:39:04;;;;;;;9.67;5.70;;;4.60;99.90;;;;;;5073939;28;20452;-77
2022/03/30 02:41:32;;;;;;;10.97;5.37;;;4.60;99.90;;;;;;5075293;28;20805;-77
2022/03/30 02:44:00;;;;;;;14.37;5.73;;;4.60;99.90;;;;;;5084260;28;20459;-77
2022/03/30 02:46:29;;;;;;;11.20;5.37;;;4.50;99.90;;;;;;5092262;28;21007;-76
2022/03/30 02:48:58;;;;;;;7.30;5.10;;;4.50;99.90;;;;;;5095532;28;20468;-77
2022/03/30 02:51:27;;;;;;;12.90;6.67;;;4.50;99.90;;;;;;5076008;28;20450;-77
2022/03/30 02:53:56;;;;;;;13.00;5.17;;;4.60;99.90;;;;;;5053703;28;20453;-77
2022/03/30 02:56:24;;;;;;;7.97;4.17;;;4.50;99.90;;;;;;5065717;28;20433;-76
2022/03/30 02:58:52;;;;;;;11.13;5.57;;;4.50;99.90;;;;;;5070535;28;20457;-78
2022/03/30 03:01:20;;;;;;;8.67;5.10;;;4.50;99.90;;;;;;5053487;28;20442;-78
2022/03/30 03:03:50;;;;;;;8.93;4.83;;;4.50;99.90;;;;;;5053559;28;20548;-77
2022/03/30 03:06:18;;;;;;;8.30;5.30;;;4.50;99.90;;;;;;5065571;28;20556;-77
2022/03/30 03:08:46;;;;;;;7.43;5.00;;;4.60;99.90;;;;;;5067749;28;20862;-77
2022/03/30 03:11:14;;;;;;;10.03;5.20;;;4.60;99.90;;;;;;5052457;28;20457;-77
2022/03/30 03:13:43;;;;;;;8.03;5.50;;;4.60;99.90;;;;;;5054755;28;20533;-77
2022/03/30 03:16:12;;;;;;;7.97;5.03;;;4.60;99.90;;;;;;5053591;28;21069;-77
2022/03/30 03:18:41;;;;;;;8.40;5.27;;;4.60;99.90;;;;;;5078997;28;20482;-77
2022/03/30 03:21:10;;;;;;;6.60;4.50;;;4.60;99.90;;;;;;5093451;28;20875;-77
2022/03/30 03:23:41;;;;;;;8.93;5.50;;;4.60;99.90;;;;;;5093385;28;20463;-77
2022/03/30 03:26:09;;;;;;;6.60;4.40;;;4.60;99.90;;;;;;5076371;28;20454;-76
2022/03/30 03:28:37;;;;;;;7.53;4.30;;;4.60;99.90;;;;;;5072903;28;21020;-77
2022/03/30 03:31:05;;;;;;;9.40;5.67;;;4.60;99.90;;;;;;5072939;28;20475;-77
2022/03/30 03:33:34;;;;;;;12.13;5.73;;;4.60;99.90;;;;;;5072960;28;20453;-77
2022/03/30 03:36:02;;;;;;;13.50;6.30;;;4.60;99.90;;;;;;5072811;28;20449;-77
2022/03/30 03:38:31;;;;;;;9.00;5.37;;;4.60;99.90;;;;;;5072670;28;20457;-77
2022/03/30 03:40:59;;;;;;;7.00;4.63;;;4.60;99.90;;;;;;5061205;28;20461;-77
2022/03/30 03:43:28;;;;;;;7.53;4.47;;;4.60;99.90;;;;;;5076146;28;20544;-76
2022/03/30 03:45:56;;;;;;;9.33;6.03;;;4.70;99.90;;;;;;5075974;28;20441;-77
2022/03/30 03:48:24;;;;;;;8.60;5.80;;;4.70;99.90;;;;;;5094047;28;20460;-77
2022/03/30 03:50:52;;;;;;;7.73;4.60;;;4.70;99.90;;;;;;5079398;28;20492;-76
2022/03/30 03:53:21;;;;;;;8.50;5.03;;;4.70;99.90;;;;;;5079620;28;20448;-77
2022/03/30 03:55:50;;;;;;;7.77;5.17;;;4.70;99.90;;;;;;5083326;28;20453;-77
2022/03/30 03:58:19;;;;;;;9.30;5.60;;;4.70;99.90;;;;;;5072497;28;20522;-77
2022/03/30 04:00:47;;;;;;;9.50;5.87;;;4.70;99.90;;;;;;5072507;28;20450;-77
2022/03/30 04:03:15;;;;;;;12.30;5.90;;;4.70;99.90;;;;;;5072573;28;20966;-77
2022/03/30 04:05:43;;;;;;;9.70;5.97;;;4.70;99.90;;;;;;5072658;28;21061;-77
2022/03/30 04:08:11;;;;;;;8.40;5.83;;;4.70;99.90;;;;;;5072503;28;20556;-76
2022/03/30 04:10:40;;;;;;;7.87;5.63;;;4.70;99.90;;;;;;5079219;28;20994;-77
2022/03/30 04:13:09;;;;;;;10.27;5.80;;;4.80;99.90;;;;;;5072483;28;20985;-77
2022/03/30 04:15:39;;;;;;;8.90;5.77;;;4.70;99.90;;;;;;5072362;28;20541;-77
2022/03/30 04:18:08;;;;;;;8.93;6.10;;;4.80;99.90;;;;;;5073593;28;20484;-76
2022/03/30 04:20:37;;;;;;;10.30;6.40;;;4.80;99.90;;;;;;5082938;28;20822;-76
2022/03/30 04:23:05;;;;;;;14.00;6.67;;;4.80;99.90;;;;;;5092099;28;20501;-77
2022/03/30 04:25:34;;;;;;;13.20;6.60;;;4.80;99.90;;;;;;5093409;28;20979;-77
2022/03/30 04:28:02;;;;;;;10.97;7.17;;;4.80;99.90;;;;;;5092368;28;20907;-77
2022/03/30 04:30:31;;;;;;;8.93;5.50;;;4.80;99.90;;;;;;5093878;28;20838;-77
2022/03/30 04:33:00;;;;;;;14.23;6.47;;;4.80;99.90;;;;;;5093616;28;20856;-77
2022/03/30 04:35:28;;;;;;;9.90;6.83;;;4.80;99.90;;;;;;5093568;28;20940;-77
2022/03/30 04:37:57;;;;;;;12.43;6.27;;;4.80;99.90;;;;;;5093460;28;21038;-77
2022/03/30 04:40:28;;;;;;;12.53;6.00;;;4.80;99.90;;;;;;5092357;28;20441;-77
2022/03/30 04:42:56;;;;;;;12.27;6.20;;;4.80;99.90;;;;;;5093558;28;20469;-77
2022/03/30 04:45:25;;;;;;;10.80;6.80;;;4.80;99.90;;;;;;5092296;28;20441;-77
2022/03/30 04:47:54;;;;;;;10.20;6.33;;;4.80;99.90;;;;;;5093516;28;20550;-77
2022/03/30 04:50:26;;;;;;;8.33;6.83;;;4.80;99.90;;;;;;5092067;28;21010;-77
2022/03/30 04:52:56;;;;;;;7.33;5.97;;;4.80;99.90;;;;;;5093719;28;20523;-77
2022/03/30 04:55:24;;;;;;;12.40;6.43;;;4.80;99.90;;;;;;5093619;28;20445;-77
2022/03/30 04:57:53;;;;;;;8.40;6.03;;;4.80;99.90;;;;;;5093677;28;20456;-77
2022/03/30 05:00:21;;;;;;;9.03;6.40;;;4.80;99.90;;;;;;5092256;28;20494;-77
2022/03/30 05:02:49;;;;;;;12.50;6.87;;;4.80;99.90;;;;;;5092148;28;20439;-77
2022/03/30 05:05:19;;;;;;;13.37;6.87;;;4.80;99.90;;;;;;5093639;28;20451;-77
2022/03/30 05:07:47;;;;;;;9.73;6.70;;;4.80;99.90;;;;;;5092128;28;20883;-77
2022/03/30 05:10:16;;;;;;;12.97;6.67;;;4.80;99.90;;;;;;5093576;28;20876;-77
2022/03/30 05:12:44;;;;;;;12.97;5.97;;;4.80;99.90;;;;;;5093656;28;20438;-78
2022/03/30 05:15:12;;;;;;;10.53;6.07;;;4.80;99.90;;;;;;5093741;28;20461;-77
2022/03/30 05:17:43;;;;;;;14.70;7.03;;;4.80;99.90;;;;;;5092130;28;20506;-77
2022/03/30 05:20:12;;;;;;;10.17;6.07;;;4.80;99.90;;;;;;5092040;28;20466;-77
2022/03/30 05:22:42;;;;;;;10.60;6.50;;;4.70;99.90;;;;;;5092366;28;20444;-77
2022/03/30 05:25:12;;;;;;;9.00;5.80;;;4.70;99.90;;;;;;5092162;28;20455;-77
2022/03/30 05:27:40;;;;;;;9.73;6.60;;;4.70;99.90;;;;;;5091833;28;20510;-76
2022/03/30 05:30:10;;;;;;;8.60;7.07;;;4.70;99.90;;;;;;5091742;28;20444;-75
2022/03/30 05:32:38;;;;;;;10.50;7.23;;;4.70;99.90;;;;;;5093710;28;20428;-77
2022/03/30 05:35:07;;;;;;;13.00;7.67;;;4.70;99.90;;;;;;5094090;28;20487;-77
2022/03/30 05:37:35;;;;;;;12.73;6.80;;;4.70;99.90;;;;;;5095395;28;20559;-77
2022/03/30 05:40:07;;;;;;;11.90;7.53;;;4.60;99.90;;;;;;5095516;28;20480;-77
2022/03/30 05:42:35;;;;;;;13.07;7.50;;;4.60;99.90;;;;;;5095746;28;20784;-77
2022/03/30 05:45:04;;;;;;;13.43;7.40;;;4.60;99.90;;;;;;5096719;28;20447;-77
2022/03/30 05:47:32;;;;;;;10.90;6.20;;;4.60;99.90;;;;;;5095152;28;20469;-77
2022/03/30 05:50:01;;;;;;;10.63;6.77;;;4.60;99.90;;;;;;5096356;28;20436;-77
2022/03/30 05:52:30;;;;;;;11.20;7.23;;;4.60;99.90;;;;;;5096511;28;20508;-77
2022/03/30 05:54:58;;;;;;;10.07;6.57;;;4.60;99.90;;;;;;5095109;28;20463;-77
2022/03/30 05:57:28;;;;;;;9.47;5.70;;;4.60;99.90;;;;;;5094809;28;20563;-77
2022/03/30 05:59:58;;;;;;;7.83;5.47;;;4.60;99.90;;;;;;5095031;28;20505;-77
2022/03/30 06:02:27;;;;;;;10.63;6.27;;;4.70;99.90;;;;;;5096895;28;20498;-77
2022/03/30 06:04:57;;;;;;;10.03;5.93;;;4.70;99.90;;;;;;5095461;28;20452;-77
2022/03/30 06:07:26;;;;;;;12.13;6.60;;;4.70;99.90;;;;;;5096634;28;20455;-77
2022/03/30 06:09:55;;;;;;;13.57;5.13;;;4.70;99.90;;;;;;5096667;28;20473;-78
2022/03/30 06:12:24;;;;;;;10.30;6.10;;;4.70;99.90;;;;;;5095169;28;20475;-77
2022/03/30 06:14:54;;;;;;;11.23;6.43;;;4.70;99.90;;;;;;5095385;28;20535;-77
2022/03/30 06:17:23;;;;;;;10.53;5.30;;;4.70;99.90;;;;;;5096856;28;20521;-77
2022/03/30 06:19:54;;;;;;;11.90;6.53;;;4.80;99.90;;;;;;5095286;28;20807;-77
2022/03/30 06:22:25;;;;;;;10.73;5.80;;;4.80;99.90;;;;;;5095186;28;20449;-77
2022/03/30 06:24:54;;;;;;;9.83;5.47;;;4.80;99.90;;;;;;5094964;28;20459;-77
2022/03/30 06:27:24;;;;;;;7.60;5.30;;;4.80;99.90;;;;;;5095469;28;20464;-77
2022/03/30 06:29:55;;;;;;;9.37;5.23;;;4.80;99.90;;;;;;5095079;28;20536;-76
2022/03/30 06:32:24;;;;;;;7.10;5.03;;;4.80;99.90;;;;;;5094914;28;20472;-77
2022/03/30 06:34:52;;;;;;;9.53;6.20;;;4.80;99.90;;;;;;5095017;28;20945;-76
2022/03/30 06:37:21;;;;;;;11.03;5.60;;;4.80;99.90;;;;;;5094676;28;20539;-77
2022/03/30 06:39:50;;;;;;;13.77;6.37;;;4.80;99.90;;;;;;5094888;28;20500;-77
2022/03/30 06:42:19;;;;;;;10.30;6.37;;;4.90;99.90;;;;;;5096359;28;20444;-77
2022/03/30 06:44:47;;;;;;;10.90;7.00;;;4.90;99.90;;;;;;5094739;28;20457;-78
2022/03/30 06:47:17;;;;;;;8.43;5.20;;;4.90;99.90;;;;;;5094339;28;20838;-77
2022/03/30 06:49:46;;;;;;;14.20;6.87;;;5.00;99.90;;;;;;5094766;28;20448;-77
2022/03/30 06:52:14;;;;;;;7.40;4.63;;;5.00;99.90;;;;;;5095720;28;21038;-77
2022/03/30 06:54:42;;;;;;;7.73;5.23;;;5.00;99.90;;;;;;5095797;28;20805;-77
2022/03/30 06:57:11;;;;;;;8.23;5.03;;;5.00;99.90;;;;;;5094723;28;20551;-77
2022/03/30 06:59:39;;;;;;;7.90;5.47;;;5.10;99.90;;;;;;5094667;28;20483;-77
2022/03/30 07:02:07;;;;;;;9.93;5.80;;;5.10;99.90;;;;;;5095906;28;20516;-76
2022/03/30 07:04:38;;;;;;;11.13;6.73;;;5.10;99.90;;;;;;5094382;28;20448;-77
2022/03/30 07:12:37;;;;;;;7.40;6.00;;;5.20;99.90;;;;;;5094514;28;20505;-77
2022/03/30 07:15:06;;;;;;;9.30;6.40;;;5.20;99.90;;;;;;5095312;28;20436;-78
2022/03/30 07:17:37;;;;;;;12.17;6.20;;;5.20;99.90;;;;;;5093879;28;20480;-77
2022/03/30 07:20:10;;;;;;;11.43;5.73;;;5.30;99.90;;;;;;5094221;28;20472;-78
2022/03/30 07:22:38;;;;;;;10.13;6.00;;;5.30;99.90;;;;;;5094172;28;20432;-77
2022/03/30 07:25:07;;;;;;;10.57;6.10;;;5.30;99.90;;;;;;5094117;28;20554;-77
2022/03/30 07:27:38;;;;;;;9.03;6.23;;;5.40;99.90;;;;;;5093960;28;20482;-76
2022/03/30 07:30:08;;;;;;;10.87;6.07;;;5.40;99.90;;;;;;5094305;28;20452;-77
2022/03/30 07:32:39;;;;;;;11.60;6.77;;;5.40;99.90;;;;;;5094535;28;20464;-76
2022/03/30 07:35:10;;;;;;;9.80;6.77;;;5.40;99.90;;;;;;5094833;28;20960;-77
2022/03/30 07:37:41;;;;;;;11.97;5.90;;;5.50;99.90;;;;;;5095404;28;20521;-76
2022/03/30 07:40:11;;;;;;;11.50;7.57;;;5.50;99.90;;;;;;5093896;28;20882;-77
2022/03/30 07:42:40;;;;;;;10.90;6.27;;;5.50;99.90;;;;;;5094436;28;20436;-77
2022/03/30 07:45:10;;;;;;;12.90;7.30;;;5.50;99.90;;;;;;5093511;28;20448;-77
2022/03/30 07:47:38;;;;;;;10.20;6.90;;;5.50;99.90;;;;;;5093544;28;20503;-76
2022/03/30 07:50:09;;;;;;;13.83;7.67;;;5.50;99.90;;;;;;5094979;28;20455;-77
2022/03/30 07:52:38;;;;;;;14.70;8.73;;;5.60;99.90;;;;;;5093588;28;20490;-81
2022/03/30 07:55:08;;;;;;;10.10;6.50;;;5.60;99.90;;;;;;5093431;28;20436;-78
2022/03/30 07:57:39;;;;;;;10.90;7.17;;;5.60;99.90;;;;;;5093282;28;20468;-77
2022/03/30 08:00:10;;;;;;;8.73;6.03;;;5.70;99.90;;;;;;5093330;28;20444;-76
2022/03/30 08:02:39;;;;;;;10.27;6.67;;;5.70;99.90;;;;;;5094612;28;20417;-76
2022/03/30 08:05:10;;;;;;;8.27;6.70;;;5.70;99.90;;;;;;5093366;28;20456;-77
2022/03/30 08:07:40;;;;;;;9.53;5.80;;;5.70;99.90;;;;;;5094630;28;20466;-81
2022/03/30 08:10:09;;;;;;;13.87;7.50;;;5.70;99.90;;;;;;5093514;28;20473;-77
2022/03/30 08:12:39;;;;;;;10.37;6.63;;;5.80;99.90;;;;;;5094966;28;20966;-78
2022/03/30 08:15:13;;;;;;;14.40;5.83;;;5.80;99.90;;;;;;5094712;28;20426;-78
2022/03/30 08:17:42;;;;;;;13.00;5.20;;;5.90;99.90;;;;;;5094834;28;20492;-78
2022/03/30 08:22:25;;;;;;;8.43;5.17;;;5.90;99.90;;;;;;5094453;28;20527;-77
2022/03/30 08:23:00;;;;;;;15.33;5.80;;;5.90;99.90;;;;;;5094329;28;20464;-77
2022/03/30 08:25:29;;;;;;;9.63;5.13;;;5.90;99.90;;;;;;5094552;28;20461;-77
2022/03/30 08:27:57;;;;;;;10.90;5.57;;;5.90;99.90;;;;;;5093065;28;20567;-78
2022/03/30 08:30:25;;;;;;;10.63;5.60;;;6.00;99.90;;;;;;5094224;28;20471;-77
2022/03/30 08:32:54;;;;;;;9.67;6.90;;;6.00;99.90;;;;;;5094263;28;20460;-77
2022/03/30 08:35:25;;;;;;;10.93;8.20;;;6.10;99.90;;;;;;5094490;28;20469;-77
2022/03/30 08:37:54;;;;;;;13.30;8.10;;;6.10;99.90;;;;;;5092726;28;20476;-77
2022/03/30 08:40:22;;;;;;;8.53;7.60;;;6.10;99.90;;;;;;5092969;28;20480;-77
2022/03/30 08:42:52;;;;;;;9.83;6.97;;;6.10;99.90;;;;;;5094902;28;20447;-76
2022/03/30 08:45:21;;;;;;;12.67;7.83;;;6.10;99.90;;;;;;5094316;28;20969;-78
2022/03/30 08:47:49;;;;;;;9.60;7.00;;;6.10;99.90;;;;;;5094116;28;20480;-76
2022/03/30 08:50:19;;;;;;;9.60;6.87;;;6.10;99.90;;;;;;5092865;28;20476;-76
2022/03/30 08:52:52;;;;;;;9.20;6.43;;;6.10;99.90;;;;;;5094613;28;20458;-76
2022/03/30 08:55:21;;;;;;;11.47;7.17;;;6.20;99.90;;;;;;5092811;28;20527;-77
2022/03/30 08:57:49;;;;;;;10.87;7.67;;;6.20;99.90;;;;;;5092771;28;20473;-77
2022/03/30 09:00:19;;;;;;;11.70;8.23;;;6.20;99.90;;;;;;5092740;28;20491;-78
2022/03/30 09:02:53;;;;;;;9.53;7.37;;;6.20;99.90;;;;;;5094178;28;20913;-77
2022/03/30 09:05:24;;;;;;;15.30;7.50;;;6.30;99.90;;;;;;5092872;28;20513;-78
2022/03/30 09:07:55;;;;;;;10.60;6.43;;;6.20;99.90;;;;;;5094625;28;20958;-77
2022/03/30 09:10:25;;;;;;;13.63;7.97;;;6.30;99.90;;;;;;5095523;28;20445;-77
2022/03/30 09:12:53;;;;;;;10.07;7.17;;;6.30;99.90;;;;;;5096122;28;20465;-77
2022/03/30 09:15:23;;;;;;;8.40;6.83;;;6.30;99.90;;;;;;5097525;28;20849;-78
2022/03/30 09:17:58;;;;;;;7.63;5.80;;;6.30;99.90;;;;;;5098166;28;20470;-76
2022/03/30 09:20:36;;;;;;;8.00;6.10;;;6.40;99.90;;;;;;5097195;28;20432;-76
2022/03/30 09:23:07;;;;;;;7.83;6.70;;;6.40;99.90;;;;;;5097196;28;20462;-78
2022/03/30 09:25:46;;;;;;;8.33;6.53;;;6.40;99.90;;;;;;5097063;28;20441;-77
2022/03/30 09:28:17;;;;;;;7.23;5.20;;;6.50;99.90;;;;;;5096785;28;20577;-77
2022/03/30 09:30:45;;;;;;;7.90;5.63;;;6.50;99.90;;;;;;5096840;28;20439;-77
2022/03/30 09:33:17;;;;;;;6.57;5.73;;;6.50;99.90;;;;;;5097665;28;20978;-77
2022/03/30 09:35:46;;;;;;;8.07;6.40;;;6.50;99.90;;;;;;5096293;28;20528;-77
2022/03/30 09:38:18;;;;;;;6.77;5.93;;;6.50;99.90;;;;;;5096523;28;20548;-77
2022/03/30 09:40:48;;;;;;;9.57;6.97;;;6.50;99.90;;;;;;5096575;28;20811;-76
2022/03/30 09:43:19;;;;;;;8.47;5.70;;;6.60;99.90;;;;;;5096752;28;20472;-77
2022/03/30 09:45:50;;;;;;;8.07;5.80;;;6.50;99.90;;;;;;5097610;28;20417;-76
2022/03/30 09:48:23;;;;;;;9.13;7.93;;;6.50;99.90;;;;;;5100172;28;20451;-76
2022/03/30 09:50:54;;;;;;;10.50;9.40;;;6.50;99.90;;;;;;5104165;28;20452;-76
2022/03/30 09:53:25;;;;;;;11.37;10.27;;;6.50;99.90;;;;;;5104087;28;20464;-76
2022/03/30 09:56:00;;;;;;;11.97;10.87;;;6.50;99.90;;;;;;5100010;28;20426;-77
2022/03/30 09:58:30;;;;;;;11.63;10.63;;;6.40;99.90;;;;;;5099368;28;20469;-77
2022/03/30 10:01:10;;;;;;;14.47;10.77;;;6.40;99.90;;;;;;5097440;28;20532;-78
2022/03/30 10:03:41;;;;;;;10.97;9.97;;;6.40;99.90;;;;;;5096899;28;20460;-77
2022/03/30 10:06:11;;;;;;;11.40;10.50;;;6.40;99.90;;;;;;5096174;28;20452;-77
2022/03/30 10:08:42;;;;;;;14.00;12.80;;;6.30;99.90;;;;;;5095892;28;20455;-78
2022/03/30 10:11:12;;;;;;;11.90;10.90;;;6.30;99.90;;;;;;5096473;28;20850;-77
2022/03/30 10:13:41;;;;;;;12.60;11.60;;;6.30;99.90;;;;;;5097950;28;20487;-77
2022/03/30 10:16:29;;;;;;;10.93;10.03;;;6.20;99.90;;;;;;5097847;28;20424;-76
2022/03/30 10:18:58;;;;;;;11.43;10.53;;;6.30;99.90;;;;;;5095822;28;20455;-77
2022/03/30 10:21:30;;;;;;;9.80;9.00;;;6.20;99.90;;;;;;5097511;28;20511;-77
2022/03/30 10:24:23;;;;;;;8.43;7.73;;;6.20;99.90;;;;;;5098240;28;20535;-77
2022/03/30 10:27:04;;;;;;;9.07;8.20;;;6.20;99.90;;;;;;5068090;28;20472;-77
2022/03/30 10:29:33;;;;;;;9.67;8.77;;;6.10;99.90;;;;;;5096268;28;20528;-78
2022/03/30 10:32:15;;;;;;;10.00;9.10;;;6.10;99.90;;;;;;5097981;28;20448;-78
2022/03/30 10:34:59;;;;;;;9.30;8.50;;;6.10;99.90;;;;;;5096615;28;20475;-77
2022/03/30 10:37:29;;;;;;;9.57;8.77;;;6.10;99.90;;;;;;5096755;28;20524;-77
2022/03/30 10:40:11;;;;;;;10.10;9.30;;;6.00;99.90;;;;;;5096272;28;20996;-77
2022/03/30 10:43:03;;;;;;;12.50;11.20;;;6.00;99.90;;;;;;5097725;28;20512;-77
2022/03/30 10:45:40;;;;;;;10.07;9.17;;;5.90;99.90;;;;;;5095877;28;20487;-78
2022/03/30 10:48:18;;;;;;;9.63;8.73;;;5.90;99.90;;;;;;5097048;28;20501;-77
2022/03/30 10:50:50;;;;;;;10.60;9.40;;;5.90;99.90;;;;;;5097934;28;20471;-78
2022/03/30 10:53:47;;;;;;;8.90;8.20;;;5.90;99.90;;;;;;5096981;28;20456;-78
2022/03/30 10:56:36;;;;;;;9.40;8.60;;;5.90;99.90;;;;;;5050203;28;20841;-78
2022/03/30 10:59:15;;;;;;;10.03;9.13;;;5.90;99.90;;;;;;5095610;28;20935;-77
2022/03/30 11:01:46;;;;;;;10.50;9.70;;;5.90;99.90;;;;;;5095588;28;20543;-78
2022/03/30 11:04:22;;;;;;;11.50;10.60;;;5.90;99.90;;;;;;5095754;28;20432;-78
2022/03/30 11:07:39;;;;;;;12.50;9.90;;;5.90;99.90;;;;;;5096644;28;20949;-77
2022/03/30 11:10:31;;;;;;;10.00;9.30;;;5.90;99.90;;;;;;5094985;28;20500;-78
2022/03/30 11:13:11;;;;;;;10.73;9.93;;;6.00;99.90;;;;;;5096074;28;20420;-78
2022/03/30 11:16:14;;;;;;;9.90;9.10;;;6.00;99.90;;;;;;5095104;28;20980;-77
2022/03/30 11:19:02;;;;;;;12.00;10.87;;;6.00;99.90;;;;;;5094932;28;20470;-78
2022/03/30 11:21:31;;;;;;;10.10;9.20;;;6.00;99.90;;;;;;5096756;28;20936;-77
2022/03/30 11:24:06;;;;;;;9.57;8.87;;;6.00;99.90;;;;;;5094819;28;20460;-77
2022/03/30 11:27:18;;;;;;;10.33;9.50;;;6.00;99.90;;;;;;5095522;28;20841;-78
2022/03/30 11:29:56;;;;;;;9.77;8.87;;;6.00;99.90;;;;;;5095941;28;20471;-78
2022/03/30 11:32:55;;;;;;;7.97;7.37;;;6.00;99.90;;;;;;5096449;28;20428;-77
2022/03/30 11:35:28;;;;;;;7.70;7.10;;;6.00;99.90;;;;;;5095735;28;20471;-78
2022/03/30 11:38:11;;;;;;;9.10;8.20;;;6.00;99.90;;;;;;5095975;28;20499;-78
2022/03/30 11:40:42;;;;;;;9.80;8.80;;;6.10;99.90;;;;;;5095476;28;20501;-78
2022/03/30 11:43:12;;;;;;;10.70;9.57;;;6.10;99.90;;;;;;5096930;28;20471;-77
2022/03/30 11:46:03;;;;;;;10.60;9.57;;;6.10;99.90;;;;;;5094620;28;20448;-78
2022/03/30 11:48:37;;;;;;;11.37;9.60;;;6.10;99.90;;;;;;5096614;28;20461;-78
2022/03/30 11:51:13;;;;;;;8.57;7.63;;;6.10;99.90;;;;;;5095564;28;20487;-78
2022/03/30 11:53:42;;;;;;;10.67;8.67;;;6.20;99.90;;;;;;5094944;28;20563;-78
2022/03/30 11:56:10;;;;;;;10.77;9.70;;;6.20;99.90;;;;;;5095708;28;20471;-77
2022/03/30 11:58:40;;;;;;;8.93;8.03;;;6.20;99.90;;;;;;5094106;28;20810;-78
2022/03/30 12:01:12;;;;;;;8.57;7.77;;;6.20;99.90;;;;;;5093876;28;20448;-76
2022/03/30 12:03:41;;;;;;;7.60;7.00;;;6.20;99.90;;;;;;5094002;28;20452;-77
2022/03/30 12:06:12;;;;;;;8.23;7.53;;;6.20;99.90;;;;;;5093771;28;20873;-77
2022/03/30 12:08:42;;;;;;;7.03;6.53;;;6.20;99.90;;;;;;5094734;28;20439;-77
2022/03/30 12:11:11;;;;;;;7.50;6.90;;;6.30;99.90;;;;;;5093660;28;20966;-77
2022/03/30 12:13:39;;;;;;;7.13;6.53;;;6.30;99.90;;;;;;5092825;28;20449;-78
2022/03/30 12:16:10;;;;;;;8.40;7.70;;;6.30;99.90;;;;;;5092991;28;20551;-77
2022/03/30 12:18:44;;;;;;;6.87;6.30;;;6.30;99.90;;;;;;5093193;28;20990;-77
2022/03/30 12:21:15;;;;;;;7.40;6.60;;;6.40;99.90;;;;;;5093064;28;20626;-77
2022/03/30 12:23:58;;;;;;;6.57;6.07;;;6.40;99.90;;;;;;5093224;28;20985;-76
2022/03/30 12:26:50;;;;;;;9.80;8.90;;;6.40;99.90;;;;;;5094066;28;20822;-77
2022/03/30 12:29:19;;;;;;;6.10;5.60;;;6.50;99.90;;;;;;5093022;28;20477;-77
2022/03/30 12:31:54;;;;;;;7.20;6.70;;;6.50;99.90;;;;;;5092950;28;20448;-77
2022/03/30 12:34:24;;;;;;;7.53;6.83;;;6.60;99.90;;;;;;5093002;28;20461;-77
2022/03/30 12:36:54;;;;;;;7.97;7.27;;;6.60;99.90;;;;;;5092824;28;20992;-77
2022/03/30 12:39:25;;;;;;;7.50;6.90;;;6.70;99.90;;;;;;5093371;28;20516;-77
2022/03/30 12:41:58;;;;;;;6.90;6.40;;;6.70;99.90;;;;;;5095386;28;20455;-78
2022/03/30 12:44:29;;;;;;;6.63;6.10;;;6.80;99.90;;;;;;5096650;28;20486;-77
2022/03/30 12:47:01;;;;;;;7.10;6.60;;;6.90;99.90;;;;;;5100988;28;20461;-78
2022/03/30 12:49:38;;;;;;;6.53;6.00;;;6.90;99.90;;;;;;5101041;28;20492;-78
2022/03/30 12:52:11;;;;;;;6.50;6.00;;;7.00;99.90;;;;;;5099905;28;21011;-77
2022/03/30 12:54:41;;;;;;;7.03;6.40;;;7.00;99.90;;;;;;5098736;28;21034;-78
2022/03/30 12:57:10;;;;;;;6.33;5.50;;;7.00;99.90;;;;;;5099955;28;20552;-78
2022/03/30 12:59:41;;;;;;;6.70;6.10;;;7.10;99.90;;;;;;5099229;28;20532;-77
2022/03/30 13:02:23;;;;;;;7.00;6.50;;;7.10;99.90;;;;;;5098800;28;20531;-77
2022/03/30 13:04:54;;;;;;;5.83;5.37;;;7.10;99.90;;;;;;5098276;28;20493;-77
2022/03/30 13:07:25;;;;;;;6.47;5.97;;;7.10;99.90;;;;;;5098541;28;20460;-78
2022/03/30 13:10:09;;;;;;;6.43;5.93;;;7.20;99.90;;;;;;5098874;28;20448;-78
2022/03/30 13:12:43;;;;;;;7.10;6.23;;;7.20;99.90;;;;;;5098961;28;20446;-78
2022/03/30 13:15:13;;;;;;;6.87;6.27;;;7.20;99.90;;;;;;5098776;28;20463;-78
2022/03/30 13:18:00;;;;;;;6.63;6.03;;;7.30;99.90;;;;;;5099046;28;20556;-77
2022/03/30 13:20:31;;;;;;;6.23;5.73;;;7.30;99.90;;;;;;5098429;28;20537;-79
2022/03/30 13:23:02;;;;;;;6.47;5.97;;;7.30;99.90;;;;;;5097910;28;20486;-77